sensor_id;sensor_type;location;lat;lon;timestamp;pressure;altitude;pressure_sealevel;temperature;humidity
34177;BME280;20450;49.074;9.158;2024-02-21T00:00:00;100807.50;;;9.10;72.28
34177;BME280;20450;49.074;9.158;2024-02-21T00:02:29;100808.22;;;9.04;72.83
34177;BME280;20450;49.074;9.158;2024-02-21T00:04:56;100806.66;;;8.79;73.42
34177;BME280;20450;49.074;9.158;2024-02-21T00:07:26;100801.94;;;8.81;73.84
34177;BME280;20450;49.074;9.158;2024-02-21T00:09:53;100796.16;;;8.92;72.88
34177;BME280;20450;49.074;9.158;2024-02-21T00:12:20;100802.50;;;8.68;74.28
34177;BME280;20450;49.074;9.158;2024-02-21T00:14:47;100781.97;;;8.67;74.24
34177;BME280;20450;49.074;9.158;2024-02-21T00:17:14;100783.84;;;8.59;74.61
34177;BME280;20450;49.074;9.158;2024-02-21T00:19:41;100777.28;;;8.61;74.76
34177;BME280;20450;49.074;9.158;2024-02-21T00:22:08;100778.59;;;8.65;74.41
34177;BME280;20450;49.074;9.158;2024-02-21T00:24:37;100765.00;;;8.59;74.96
34177;BME280;20450;49.074;9.158;2024-02-21T00:27:04;100760.97;;;8.55;74.92
34177;BME280;20450;49.074;9.158;2024-02-21T00:29:31;100752.56;;;8.58;75.14
34177;BME280;20450;49.074;9.158;2024-02-21T00:31:58;100762.69;;;8.86;73.80
34177;BME280;20450;49.074;9.158;2024-02-21T00:34:25;100753.78;;;9.08;73.99
34177;BME280;20450;49.074;9.158;2024-02-21T00:36:55;100749.13;;;9.25;72.73
34177;BME280;20450;49.074;9.158;2024-02-21T00:39:22;100744.81;;;9.38;72.54
34177;BME280;20450;49.074;9.158;2024-02-21T00:41:50;100743.03;;;9.31;71.39
34177;BME280;20450;49.074;9.158;2024-02-21T00:44:17;100736.19;;;9.20;71.63
34177;BME280;20450;49.074;9.158;2024-02-21T00:46:44;100747.13;;;8.96;72.49
34177;BME280;20450;49.074;9.158;2024-02-21T00:49:11;100738.72;;;8.91;73.02
34177;BME280;20450;49.074;9.158;2024-02-21T00:51:40;100743.84;;;9.09;72.93
34177;BME280;20450;49.074;9.158;2024-02-21T00:54:07;100735.34;;;9.20;72.35
34177;BME280;20450;49.074;9.158;2024-02-21T00:56:34;100738.53;;;8.93;72.86
34177;BME280;20450;49.074;9.158;2024-02-21T00:59:02;100733.81;;;8.95;72.86
34177;BME280;20450;49.074;9.158;2024-02-21T01:01:29;100730.56;;;8.77;73.42
34177;BME280;20450;49.074;9.158;2024-02-21T01:03:57;100727.34;;;8.81;73.47
34177;BME280;20450;49.074;9.158;2024-02-21T01:06:24;100730.13;;;8.65;74.25
34177;BME280;20450;49.074;9.158;2024-02-21T01:08:55;100716.63;;;8.96;73.63
34177;BME280;20450;49.074;9.158;2024-02-21T01:11:22;100714.13;;;8.94;73.13
34177;BME280;20450;49.074;9.158;2024-02-21T01:13:49;100715.63;;;8.97;73.33
34177;BME280;20450;49.074;9.158;2024-02-21T01:16:20;100711.59;;;8.70;73.53
34177;BME280;20450;49.074;9.158;2024-02-21T01:18:47;100708.38;;;8.75;73.91
34177;BME280;20450;49.074;9.158;2024-02-21T01:21:14;100711.59;;;8.93;73.19
34177;BME280;20450;49.074;9.158;2024-02-21T01:23:41;100702.72;;;9.15;72.92
34177;BME280;20450;49.074;9.158;2024-02-21T01:26:08;100695.16;;;9.10;72.08
34177;BME280;20450;49.074;9.158;2024-02-21T01:28:35;100688.69;;;9.19;71.92
34177;BME280;20450;49.074;9.158;2024-02-21T01:31:02;100683.34;;;9.11;72.45
34177;BME280;20450;49.074;9.158;2024-02-21T01:33:31;100690.75;;;9.32;72.17
34177;BME280;20450;49.074;9.158;2024-02-21T01:35:58;100688.66;;;9.42;71.37
34177;BME280;20450;49.074;9.158;2024-02-21T01:38:25;100682.50;;;9.33;71.33
34177;BME280;20450;49.074;9.158;2024-02-21T01:40:52;100678.91;;;8.96;72.35
34177;BME280;20450;49.074;9.158;2024-02-21T01:43:20;100665.97;;;8.91;72.64
34177;BME280;20450;49.074;9.158;2024-02-21T01:45:50;100666.69;;;8.63;73.82
34177;BME280;20450;49.074;9.158;2024-02-21T01:48:18;100671.06;;;8.64;74.49
34177;BME280;20450;49.074;9.158;2024-02-21T01:50:49;100664.06;;;8.47;74.70
34177;BME280;20450;49.074;9.158;2024-02-21T01:53:19;100654.56;;;8.59;75.31
34177;BME280;20450;49.074;9.158;2024-02-21T01:55:48;100645.50;;;8.60;75.61
34177;BME280;20450;49.074;9.158;2024-02-21T01:58:16;100643.44;;;8.62;76.07
34177;BME280;20450;49.074;9.158;2024-02-21T02:00:46;100637.81;;;8.49;76.40
34177;BME280;20450;49.074;9.158;2024-02-21T02:03:14;100634.78;;;8.52;76.31
34177;BME280;20450;49.074;9.158;2024-02-21T02:05:43;100632.78;;;8.46;76.82
34177;BME280;20450;49.074;9.158;2024-02-21T02:08:12;100630.44;;;8.43;77.27
34177;BME280;20450;49.074;9.158;2024-02-21T02:10:40;100639.03;;;8.46;77.09
34177;BME280;20450;49.074;9.158;2024-02-21T02:13:08;100635.69;;;8.67;77.02
34177;BME280;20450;49.074;9.158;2024-02-21T02:15:39;100640.06;;;8.90;76.20
34177;BME280;20450;49.074;9.158;2024-02-21T02:18:06;100651.56;;;9.07;76.24
34177;BME280;20450;49.074;9.158;2024-02-21T02:20:35;100650.41;;;9.24;76.30
34177;BME280;20450;49.074;9.158;2024-02-21T02:23:07;100649.78;;;9.36;76.41
34177;BME280;20450;49.074;9.158;2024-02-21T02:25:38;100652.41;;;9.44;75.97
34177;BME280;20450;49.074;9.158;2024-02-21T02:28:06;100649.63;;;9.52;76.28
34177;BME280;20450;49.074;9.158;2024-02-21T02:30:34;100652.44;;;9.59;75.11
34177;BME280;20450;49.074;9.158;2024-02-21T02:33:02;100644.81;;;9.62;76.12
34177;BME280;20450;49.074;9.158;2024-02-21T02:35:30;100640.00;;;8.98;76.28
34177;BME280;20450;49.074;9.158;2024-02-21T02:37:58;100632.41;;;8.79;77.61
34177;BME280;20450;49.074;9.158;2024-02-21T02:40:25;100632.09;;;8.97;76.49
34177;BME280;20450;49.074;9.158;2024-02-21T02:42:53;100636.50;;;9.12;76.69
34177;BME280;20450;49.074;9.158;2024-02-21T02:45:21;100630.88;;;9.22;75.98
34177;BME280;20450;49.074;9.158;2024-02-21T02:47:49;100634.16;;;9.32;75.96
34177;BME280;20450;49.074;9.158;2024-02-21T02:50:16;100615.56;;;8.77;76.46
34177;BME280;20450;49.074;9.158;2024-02-21T02:52:43;100616.34;;;8.86;76.21
34177;BME280;20450;49.074;9.158;2024-02-21T02:55:10;100610.00;;;8.79;77.10
34177;BME280;20450;49.074;9.158;2024-02-21T02:57:37;100610.31;;;8.61;76.71
34177;BME280;20450;49.074;9.158;2024-02-21T03:00:07;100603.84;;;8.48;76.99
34177;BME280;20450;49.074;9.158;2024-02-21T03:02:35;100596.75;;;8.47;77.41
34177;BME280;20450;49.074;9.158;2024-02-21T03:05:12;100597.25;;;8.50;77.73
34177;BME280;20450;49.074;9.158;2024-02-21T03:07:40;100584.78;;;8.27;78.51
34177;BME280;20450;49.074;9.158;2024-02-21T03:10:08;100587.19;;;8.14;79.07
34177;BME280;20450;49.074;9.158;2024-02-21T03:12:36;100576.53;;;8.20;78.91
34177;BME280;20450;49.074;9.158;2024-02-21T03:15:05;100573.19;;;8.18;79.14
34177;BME280;20450;49.074;9.158;2024-02-21T03:17:33;100569.41;;;8.04;79.40
34177;BME280;20450;49.074;9.158;2024-02-21T03:20:01;100572.75;;;8.06;80.19
34177;BME280;20450;49.074;9.158;2024-02-21T03:22:28;100561.88;;;8.00;79.54
34177;BME280;20450;49.074;9.158;2024-02-21T03:24:55;100554.81;;;8.22;79.67
34177;BME280;20450;49.074;9.158;2024-02-21T03:27:22;100556.88;;;8.20;78.84
34177;BME280;20450;49.074;9.158;2024-02-21T03:29:49;100555.91;;;8.13;78.87
34177;BME280;20450;49.074;9.158;2024-02-21T03:32:20;100555.19;;;8.19;78.63
34177;BME280;20450;49.074;9.158;2024-02-21T03:34:47;100555.34;;;8.17;78.62
34177;BME280;20450;49.074;9.158;2024-02-21T03:37:14;100562.25;;;8.20;78.68
34177;BME280;20450;49.074;9.158;2024-02-21T03:39:41;100552.66;;;8.25;78.86
34177;BME280;20450;49.074;9.158;2024-02-21T03:42:09;100544.13;;;8.44;78.34
34177;BME280;20450;49.074;9.158;2024-02-21T03:44:36;100538.56;;;8.15;78.94
34177;BME280;20450;49.074;9.158;2024-02-21T03:47:03;100538.94;;;8.12;79.48
34177;BME280;20450;49.074;9.158;2024-02-21T03:49:32;100528.78;;;8.22;78.70
34177;BME280;20450;49.074;9.158;2024-02-21T03:51:59;100542.44;;;8.13;78.85
34177;BME280;20450;49.074;9.158;2024-02-21T03:54:26;100542.63;;;8.42;78.24
34177;BME280;20450;49.074;9.158;2024-02-21T03:56:53;100531.28;;;8.32;78.09
34177;BME280;20450;49.074;9.158;2024-02-21T03:59:20;100533.03;;;8.17;78.18
34177;BME280;20450;49.074;9.158;2024-02-21T04:01:51;100525.94;;;8.16;78.91
34177;BME280;20450;49.074;9.158;2024-02-21T04:04:18;100532.19;;;8.08;78.96
34177;BME280;20450;49.074;9.158;2024-02-21T04:06:48;100521.94;;;8.12;78.53
34177;BME280;20450;49.074;9.158;2024-02-21T04:09:24;100510.69;;;8.08;78.77
34177;BME280;20450;49.074;9.158;2024-02-21T04:11:51;100492.28;;;7.97;78.76
34177;BME280;20450;49.074;9.158;2024-02-21T04:14:18;100484.72;;;7.92;78.58
34177;BME280;20450;49.074;9.158;2024-02-21T04:16:45;100484.13;;;7.82;79.00
34177;BME280;20450;49.074;9.158;2024-02-21T04:19:12;100488.88;;;8.03;78.33
34177;BME280;20450;49.074;9.158;2024-02-21T04:21:40;100503.09;;;8.12;77.91
34177;BME280;20450;49.074;9.158;2024-02-21T04:24:08;100502.03;;;8.21;77.62
34177;BME280;20450;49.074;9.158;2024-02-21T04:26:35;100512.09;;;7.96;77.97
34177;BME280;20450;49.074;9.158;2024-02-21T04:29:05;100502.72;;;7.92;78.42
34177;BME280;20450;49.074;9.158;2024-02-21T04:31:32;100504.59;;;7.91;78.58
34177;BME280;20450;49.074;9.158;2024-02-21T04:33:59;100496.56;;;7.83;78.99
34177;BME280;20450;49.074;9.158;2024-02-21T04:36:26;100495.84;;;7.89;78.44
34177;BME280;20450;49.074;9.158;2024-02-21T04:38:53;100501.78;;;8.07;78.03
34177;BME280;20450;49.074;9.158;2024-02-21T04:41:21;100514.00;;;8.18;77.35
34177;BME280;20450;49.074;9.158;2024-02-21T04:43:51;100524.91;;;8.25;77.35
34177;BME280;20450;49.074;9.158;2024-02-21T04:46:18;100530.16;;;8.41;76.81
34177;BME280;20450;49.074;9.158;2024-02-21T04:48:45;100525.63;;;8.41;76.50
34177;BME280;20450;49.074;9.158;2024-02-21T04:51:12;100523.59;;;8.43;76.25
34177;BME280;20450;49.074;9.158;2024-02-21T04:53:39;100514.88;;;8.11;77.00
34177;BME280;20450;49.074;9.158;2024-02-21T04:56:06;100514.31;;;7.92;78.13
34177;BME280;20450;49.074;9.158;2024-02-21T04:58:37;100516.50;;;7.89;78.33
34177;BME280;20450;49.074;9.158;2024-02-21T05:01:04;100510.78;;;7.92;78.46
34177;BME280;20450;49.074;9.158;2024-02-21T05:03:33;100510.22;;;8.04;77.57
34177;BME280;20450;49.074;9.158;2024-02-21T05:06:00;100499.91;;;7.85;77.75
34177;BME280;20450;49.074;9.158;2024-02-21T05:08:27;100495.94;;;7.73;78.95
34177;BME280;20450;49.074;9.158;2024-02-21T05:10:54;100483.38;;;7.66;79.15
34177;BME280;20450;49.074;9.158;2024-02-21T05:13:21;100483.44;;;7.50;80.31
34177;BME280;20450;49.074;9.158;2024-02-21T05:15:50;100468.75;;;7.60;79.29
34177;BME280;20450;49.074;9.158;2024-02-21T05:18:17;100460.94;;;7.43;79.96
34177;BME280;20450;49.074;9.158;2024-02-21T05:20:44;100465.25;;;7.60;79.57
34177;BME280;20450;49.074;9.158;2024-02-21T05:23:11;100461.41;;;7.85;78.96
34177;BME280;20450;49.074;9.158;2024-02-21T05:25:38;100454.44;;;7.68;78.53
34177;BME280;20450;49.074;9.158;2024-02-21T05:28:06;100458.00;;;7.60;78.45
34177;BME280;20450;49.074;9.158;2024-02-21T05:30:33;100453.44;;;7.69;78.37
34177;BME280;20450;49.074;9.158;2024-02-21T05:33:05;100444.78;;;7.81;77.89
34177;BME280;20450;49.074;9.158;2024-02-21T05:35:34;100444.50;;;7.76;77.54
34177;BME280;20450;49.074;9.158;2024-02-21T05:38:02;100439.41;;;7.81;77.99
34177;BME280;20450;49.074;9.158;2024-02-21T05:40:29;100439.84;;;7.62;78.08
34177;BME280;20450;49.074;9.158;2024-02-21T05:42:56;100443.25;;;7.56;78.12
34177;BME280;20450;49.074;9.158;2024-02-21T05:45:23;100440.97;;;7.45;78.94
34177;BME280;20450;49.074;9.158;2024-02-21T05:47:50;100450.28;;;7.57;78.53
34177;BME280;20450;49.074;9.158;2024-02-21T05:50:18;100441.16;;;7.44;78.19
34177;BME280;20450;49.074;9.158;2024-02-21T05:52:46;100445.69;;;7.35;79.19
34177;BME280;20450;49.074;9.158;2024-02-21T05:55:13;100435.97;;;7.34;78.73
34177;BME280;20450;49.074;9.158;2024-02-21T05:57:40;100435.78;;;7.44;79.14
34177;BME280;20450;49.074;9.158;2024-02-21T06:00:08;100443.00;;;7.35;78.82
34177;BME280;20450;49.074;9.158;2024-02-21T06:02:38;100446.81;;;7.49;78.78
34177;BME280;20450;49.074;9.158;2024-02-21T06:05:06;100452.34;;;7.55;78.68
34177;BME280;20450;49.074;9.158;2024-02-21T06:07:35;100448.41;;;7.66;77.79
34177;BME280;20450;49.074;9.158;2024-02-21T06:10:02;100438.44;;;7.74;77.79
34177;BME280;20450;49.074;9.158;2024-02-21T06:12:30;100432.34;;;7.80;77.86
34177;BME280;20450;49.074;9.158;2024-02-21T06:14:57;100439.63;;;7.94;77.43
34177;BME280;20450;49.074;9.158;2024-02-21T06:17:24;100441.22;;;8.12;79.85
34177;BME280;20450;49.074;9.158;2024-02-21T06:19:52;100437.69;;;8.34;82.07
34177;BME280;20450;49.074;9.158;2024-02-21T06:22:19;100443.06;;;8.71;86.38
34177;BME280;20450;49.074;9.158;2024-02-21T06:24:47;100444.78;;;9.01;87.00
34177;BME280;20450;49.074;9.158;2024-02-21T06:27:15;100440.53;;;9.21;86.38
34177;BME280;20450;49.074;9.158;2024-02-21T06:29:42;100441.91;;;9.31;83.61
34177;BME280;20450;49.074;9.158;2024-02-21T06:32:09;100433.31;;;9.42;82.44
34177;BME280;20450;49.074;9.158;2024-02-21T06:34:37;100438.13;;;9.61;83.55
34177;BME280;20450;49.074;9.158;2024-02-21T06:37:05;100430.50;;;9.65;81.00
34177;BME280;20450;49.074;9.158;2024-02-21T06:39:32;100423.53;;;9.56;76.32
34177;BME280;20450;49.074;9.158;2024-02-21T06:42:02;100426.38;;;9.19;74.14
34177;BME280;20450;49.074;9.158;2024-02-21T06:44:31;100431.31;;;9.30;79.59
34177;BME280;20450;49.074;9.158;2024-02-21T06:46:57;100420.25;;;9.25;72.69
34177;BME280;20450;49.074;9.158;2024-02-21T06:49:25;100415.94;;;8.58;73.89
34177;BME280;20450;49.074;9.158;2024-02-21T06:51:56;100413.38;;;8.79;73.72
34177;BME280;20450;49.074;9.158;2024-02-21T06:54:23;100404.34;;;9.01;72.24
34177;BME280;20450;49.074;9.158;2024-02-21T06:56:50;100407.06;;;9.01;71.75
34177;BME280;20450;49.074;9.158;2024-02-21T06:59:19;100404.78;;;9.33;70.99
34177;BME280;20450;49.074;9.158;2024-02-21T07:01:47;100413.44;;;9.79;69.97
34177;BME280;20450;49.074;9.158;2024-02-21T07:04:16;100405.94;;;9.10;70.44
34177;BME280;20450;49.074;9.158;2024-02-21T07:06:44;100406.38;;;9.28;70.78
34177;BME280;20450;49.074;9.158;2024-02-21T07:09:11;100404.53;;;8.99;71.07
34177;BME280;20450;49.074;9.158;2024-02-21T07:11:38;100400.56;;;8.81;72.12
34177;BME280;20450;49.074;9.158;2024-02-21T07:14:05;100397.56;;;8.76;72.08
34177;BME280;20450;49.074;9.158;2024-02-21T07:16:33;100402.84;;;8.55;72.78
34177;BME280;20450;49.074;9.158;2024-02-21T07:19:02;100402.59;;;9.08;74.48
34177;BME280;20450;49.074;9.158;2024-02-21T07:21:29;100407.91;;;9.01;71.55
34177;BME280;20450;49.074;9.158;2024-02-21T07:23:56;100410.56;;;9.66;70.23
34177;BME280;20450;49.074;9.158;2024-02-21T07:26:24;100408.56;;;10.86;70.93
34177;BME280;20450;49.074;9.158;2024-02-21T07:28:51;100405.34;;;11.98;64.01
34177;BME280;20450;49.074;9.158;2024-02-21T07:31:18;100410.38;;;12.99;59.18
34177;BME280;20450;49.074;9.158;2024-02-21T07:33:47;100430.53;;;13.29;56.50
34177;BME280;20450;49.074;9.158;2024-02-21T07:36:36;100422.75;;;13.52;56.67
34177;BME280;20450;49.074;9.158;2024-02-21T07:39:07;100418.72;;;14.36;54.32
34177;BME280;20450;49.074;9.158;2024-02-21T07:41:35;100409.66;;;14.49;52.83
34177;BME280;20450;49.074;9.158;2024-02-21T07:44:05;100378.09;;;12.06;57.22
34177;BME280;20450;49.074;9.158;2024-02-21T07:46:32;100374.28;;;11.27;62.48
34177;BME280;20450;49.074;9.158;2024-02-21T07:49:01;100386.59;;;11.97;60.47
34177;BME280;20450;49.074;9.158;2024-02-21T07:51:28;100388.91;;;12.52;57.08
34177;BME280;20450;49.074;9.158;2024-02-21T07:53:55;100378.50;;;12.10;58.85
34177;BME280;20450;49.074;9.158;2024-02-21T07:56:27;100375.34;;;12.65;57.60
34177;BME280;20450;49.074;9.158;2024-02-21T07:58:57;100365.34;;;11.27;61.46
34177;BME280;20450;49.074;9.158;2024-02-21T08:01:24;100373.88;;;10.56;63.01
34177;BME280;20450;49.074;9.158;2024-02-21T08:03:53;100376.19;;;10.59;63.23
34177;BME280;20450;49.074;9.158;2024-02-21T08:06:22;100375.44;;;10.16;64.50
34177;BME280;20450;49.074;9.158;2024-02-21T08:08:49;100380.22;;;10.76;64.80
34177;BME280;20450;49.074;9.158;2024-02-21T08:11:16;100369.72;;;12.01;61.85
34177;BME280;20450;49.074;9.158;2024-02-21T08:13:43;100383.47;;;12.97;57.32
34177;BME280;20450;49.074;9.158;2024-02-21T08:16:10;100384.56;;;13.47;55.89
34177;BME280;20450;49.074;9.158;2024-02-21T08:18:37;100381.97;;;14.34;53.85
34177;BME280;20450;49.074;9.158;2024-02-21T08:21:05;100355.19;;;12.35;58.09
34177;BME280;20450;49.074;9.158;2024-02-21T08:23:33;100355.38;;;12.53;57.77
34177;BME280;20450;49.074;9.158;2024-02-21T08:26:02;100359.34;;;13.40;56.55
34177;BME280;20450;49.074;9.158;2024-02-21T08:28:29;100351.41;;;11.97;58.10
34177;BME280;20450;49.074;9.158;2024-02-21T08:30:58;100354.31;;;12.28;57.61
34177;BME280;20450;49.074;9.158;2024-02-21T08:33:25;100360.31;;;12.88;57.91
34177;BME280;20450;49.074;9.158;2024-02-21T08:35:52;100361.38;;;13.51;55.96
34177;BME280;20450;49.074;9.158;2024-02-21T08:38:20;100357.75;;;13.19;55.25
34177;BME280;20450;49.074;9.158;2024-02-21T08:40:48;100344.88;;;13.02;55.06
34177;BME280;20450;49.074;9.158;2024-02-21T08:43:15;100338.13;;;11.35;60.57
34177;BME280;20450;49.074;9.158;2024-02-21T08:45:43;100334.97;;;11.31;60.72
34177;BME280;20450;49.074;9.158;2024-02-21T08:48:10;100336.63;;;12.06;60.40
34177;BME280;20450;49.074;9.158;2024-02-21T08:50:37;100324.94;;;11.85;60.38
34177;BME280;20450;49.074;9.158;2024-02-21T08:53:04;100322.63;;;11.69;60.39
34177;BME280;20450;49.074;9.158;2024-02-21T08:55:31;100330.75;;;11.76;59.23
34177;BME280;20450;49.074;9.158;2024-02-21T08:58:00;100324.50;;;10.68;62.58
34177;BME280;20450;49.074;9.158;2024-02-21T09:00:27;100320.16;;;11.21;62.10
34177;BME280;20450;49.074;9.158;2024-02-21T09:02:56;100314.34;;;11.17;62.04
34177;BME280;20450;49.074;9.158;2024-02-21T09:05:23;100318.34;;;10.19;63.37
34177;BME280;20450;49.074;9.158;2024-02-21T09:07:51;100316.16;;;10.08;65.49
34177;BME280;20450;49.074;9.158;2024-02-21T09:10:18;100313.56;;;10.83;63.95
34177;BME280;20450;49.074;9.158;2024-02-21T09:12:45;100305.06;;;11.39;63.11
34177;BME280;20450;49.074;9.158;2024-02-21T09:15:13;100304.94;;;11.13;62.86
34177;BME280;20450;49.074;9.158;2024-02-21T09:17:40;100310.97;;;11.02;61.57
34177;BME280;20450;49.074;9.158;2024-02-21T09:20:08;100301.25;;;10.80;64.19
34177;BME280;20450;49.074;9.158;2024-02-21T09:22:36;100314.59;;;11.29;63.14
34177;BME280;20450;49.074;9.158;2024-02-21T09:25:03;100303.81;;;11.55;62.23
34177;BME280;20450;49.074;9.158;2024-02-21T09:27:31;100311.63;;;12.04;61.15
34177;BME280;20450;49.074;9.158;2024-02-21T09:29:58;100298.66;;;11.60;60.45
34177;BME280;20450;49.074;9.158;2024-02-21T09:32:26;100306.00;;;11.99;60.01
34177;BME280;20450;49.074;9.158;2024-02-21T09:34:53;100299.97;;;12.10;59.72
34177;BME280;20450;49.074;9.158;2024-02-21T09:37:22;100300.59;;;12.12;57.98
34177;BME280;20450;49.074;9.158;2024-02-21T09:39:49;100293.28;;;11.06;61.14
34177;BME280;20450;49.074;9.158;2024-02-21T09:42:20;100287.25;;;11.04;61.54
34177;BME280;20450;49.074;9.158;2024-02-21T09:44:48;100286.03;;;11.13;61.38
34177;BME280;20450;49.074;9.158;2024-02-21T09:47:19;100274.28;;;11.53;60.79
34177;BME280;20450;49.074;9.158;2024-02-21T09:49:52;100280.19;;;11.96;60.33
34177;BME280;20450;49.074;9.158;2024-02-21T09:52:22;100290.56;;;12.51;57.70
34177;BME280;20450;49.074;9.158;2024-02-21T09:54:49;100281.19;;;12.41;57.12
34177;BME280;20450;49.074;9.158;2024-02-21T09:57:18;100274.75;;;12.22;57.28
34177;BME280;20450;49.074;9.158;2024-02-21T09:59:47;100286.19;;;12.44;56.26
34177;BME280;20450;49.074;9.158;2024-02-21T10:02:14;100285.63;;;12.99;54.92
34177;BME280;20450;49.074;9.158;2024-02-21T10:04:41;100270.13;;;13.81;54.06
34177;BME280;20450;49.074;9.158;2024-02-21T10:07:09;100280.34;;;14.10;52.10
34177;BME280;20450;49.074;9.158;2024-02-21T10:09:37;100285.16;;;14.08;51.67
34177;BME280;20450;49.074;9.158;2024-02-21T10:12:08;100277.25;;;14.49;51.32
34177;BME280;20450;49.074;9.158;2024-02-21T10:14:37;100269.84;;;13.89;51.93
34177;BME280;20450;49.074;9.158;2024-02-21T10:17:04;100262.78;;;14.91;51.58
34177;BME280;20450;49.074;9.158;2024-02-21T10:19:31;100282.88;;;15.97;47.59
34177;BME280;20450;49.074;9.158;2024-02-21T10:22:04;100287.22;;;15.75;47.45
34177;BME280;20450;49.074;9.158;2024-02-21T10:24:34;100269.63;;;16.24;47.00
34177;BME280;20450;49.074;9.158;2024-02-21T10:27:02;100291.25;;;17.22;44.89
34177;BME280;20450;49.074;9.158;2024-02-21T10:29:30;100307.13;;;17.93;43.16
34177;BME280;20450;49.074;9.158;2024-02-21T10:32:05;100307.59;;;18.18;41.81
34177;BME280;20450;49.074;9.158;2024-02-21T10:34:33;100318.41;;;18.13;40.84
34177;BME280;20450;49.074;9.158;2024-02-21T10:37:01;100303.59;;;18.09;41.83
34177;BME280;20450;49.074;9.158;2024-02-21T10:39:29;100288.38;;;16.78;44.15
34177;BME280;20450;49.074;9.158;2024-02-21T10:42:01;100275.16;;;16.98;43.89
34177;BME280;20450;49.074;9.158;2024-02-21T10:44:31;100257.78;;;17.27;44.59
34177;BME280;20450;49.074;9.158;2024-02-21T10:46:59;100262.03;;;17.63;42.92
34177;BME280;20450;49.074;9.158;2024-02-21T10:49:33;100268.91;;;17.65;42.01
34177;BME280;20450;49.074;9.158;2024-02-21T10:52:08;100276.41;;;17.30;41.85
34177;BME280;20450;49.074;9.158;2024-02-21T10:54:44;100252.03;;;17.00;43.20
34177;BME280;20450;49.074;9.158;2024-02-21T10:57:16;100220.22;;;16.20;45.59
34177;BME280;20450;49.074;9.158;2024-02-21T10:59:47;100209.53;;;15.84;46.30
34177;BME280;20450;49.074;9.158;2024-02-21T11:02:15;100192.16;;;14.85;48.82
34177;BME280;20450;49.074;9.158;2024-02-21T11:04:43;100171.19;;;14.56;50.02
34177;BME280;20450;49.074;9.158;2024-02-21T11:07:11;100167.78;;;13.81;52.02
34177;BME280;20450;49.074;9.158;2024-02-21T11:09:40;100161.50;;;13.81;51.97
34177;BME280;20450;49.074;9.158;2024-02-21T11:12:07;100156.97;;;13.75;51.90
34177;BME280;20450;49.074;9.158;2024-02-21T11:14:38;100149.28;;;13.47;52.50
34177;BME280;20450;49.074;9.158;2024-02-21T11:17:15;100147.72;;;14.01;52.05
34177;BME280;20450;49.074;9.158;2024-02-21T11:19:43;100153.94;;;15.09;50.27
34177;BME280;20450;49.074;9.158;2024-02-21T11:22:14;100167.53;;;15.09;48.71
34177;BME280;20450;49.074;9.158;2024-02-21T11:24:42;100165.56;;;15.81;47.35
34177;BME280;20450;49.074;9.158;2024-02-21T11:27:11;100165.31;;;16.40;46.26
34177;BME280;20450;49.074;9.158;2024-02-21T11:29:42;100185.09;;;16.98;44.53
34177;BME280;20450;49.074;9.158;2024-02-21T11:32:10;100162.34;;;16.41;44.67
34177;BME280;20450;49.074;9.158;2024-02-21T11:34:38;100150.03;;;16.50;45.93
34177;BME280;20450;49.074;9.158;2024-02-21T11:37:13;100156.38;;;16.67;45.34
34177;BME280;20450;49.074;9.158;2024-02-21T11:39:42;100156.53;;;16.89;44.31
34177;BME280;20450;49.074;9.158;2024-02-21T11:42:09;100145.97;;;17.20;44.59
34177;BME280;20450;49.074;9.158;2024-02-21T11:44:38;100142.47;;;17.70;44.09
34177;BME280;20450;49.074;9.158;2024-02-21T11:47:07;100148.91;;;17.97;42.64
34177;BME280;20450;49.074;9.158;2024-02-21T11:49:36;100156.75;;;18.10;41.66
34177;BME280;20450;49.074;9.158;2024-02-21T11:52:06;100143.94;;;18.10;42.00
34177;BME280;20450;49.074;9.158;2024-02-21T11:54:41;100136.09;;;17.81;42.57
34177;BME280;20450;49.074;9.158;2024-02-21T11:57:08;100128.78;;;18.03;41.64
34177;BME280;20450;49.074;9.158;2024-02-21T11:59:35;100122.34;;;17.76;41.95
34177;BME280;20450;49.074;9.158;2024-02-21T12:02:02;100125.56;;;17.56;42.05
34177;BME280;20450;49.074;9.158;2024-02-21T12:04:32;100110.28;;;17.55;42.50
34177;BME280;20450;49.074;9.158;2024-02-21T12:06:59;100094.38;;;17.52;43.16
34177;BME280;20450;49.074;9.158;2024-02-21T12:09:26;100089.41;;;16.60;43.62
34177;BME280;20450;49.074;9.158;2024-02-21T12:11:57;100050.69;;;15.49;46.44
34177;BME280;20450;49.074;9.158;2024-02-21T12:14:28;100041.03;;;15.00;46.99
34177;BME280;20450;49.074;9.158;2024-02-21T12:16:57;100027.53;;;14.94;47.05
34177;BME280;20450;49.074;9.158;2024-02-21T12:19:24;100020.59;;;14.98;48.21
34177;BME280;20450;49.074;9.158;2024-02-21T12:21:53;100027.44;;;15.00;47.78
34177;BME280;20450;49.074;9.158;2024-02-21T12:24:22;100013.00;;;14.88;48.17
34177;BME280;20450;49.074;9.158;2024-02-21T12:26:50;100018.09;;;14.85;46.40
34177;BME280;20450;49.074;9.158;2024-02-21T12:29:17;100017.41;;;15.01;47.40
34177;BME280;20450;49.074;9.158;2024-02-21T12:31:44;100023.00;;;15.40;45.55
34177;BME280;20450;49.074;9.158;2024-02-21T12:34:14;100024.72;;;15.00;45.75
34177;BME280;20450;49.074;9.158;2024-02-21T12:36:45;99981.03;;;13.83;49.68
34177;BME280;20450;49.074;9.158;2024-02-21T12:39:14;99977.72;;;14.11;48.09
34177;BME280;20450;49.074;9.158;2024-02-21T12:41:42;99987.41;;;14.66;46.84
34177;BME280;20450;49.074;9.158;2024-02-21T12:44:10;99982.50;;;15.09;46.41
34177;BME280;20450;49.074;9.158;2024-02-21T12:46:38;99981.63;;;14.33;47.27
34177;BME280;20450;49.074;9.158;2024-02-21T12:49:06;99963.22;;;14.35;47.67
34177;BME280;20450;49.074;9.158;2024-02-21T12:51:33;99954.88;;;14.01;49.20
34177;BME280;20450;49.074;9.158;2024-02-21T12:54:00;99950.09;;;14.14;47.97
34177;BME280;20450;49.074;9.158;2024-02-21T12:56:29;99945.88;;;14.00;48.18
34177;BME280;20450;49.074;9.158;2024-02-21T12:58:56;99940.19;;;14.49;48.05